Monte Alto, Texas
Current Conditions -  °F | °C
As of 6:35 AM on Sunday 21 Dec 2014 (Local Time) from KT65 Reporting Station
Drizzle Drizzle  
Wind Chill: 13°   Ceiling: 1100
Heat Index: 13°   Visibility: 4mi
Dew Point: 11°   Wind: 7mph
Humidity: 92%   Direction: 340°NNW
Pressure: 30.08"   Gusts: NA
Location:  26.3131°N, 97.9381°W
Report Text: KT65 211235Z AUTO 34006KT 4SM -DZ OVC011 13/11 A3008 RMK AO2 T01260113
Loading
Personal Weather Stations






























Interactive Weather Map New forecast layout! Learn more

10-Day Weather Forecast

Advertisements
Track Severe Weather on mobile